Time;durP1;ratioP1;P1;durP2;ratioP2;P2;SDS_P1;SDS_P2;PMS_P1;PMS_P2;Temp;Humidity;BMP_temperature;BMP_pressure;BME280_temperature;BME280_humidity;BME280_pressure;Samples;Min_cycle;Max_cycle;Signal;HPM_P1;HPM_P2
2023/03/14 00:00:19;;;;;;;;;;;;;;;;;;4453778;32;20120;-78
2023/03/14 00:02:44;;;;;;;27.95;4.82;;;;;;;;;;4454432;32;20000;-77
2023/03/14 00:05:09;;;;;;;;;;;;;;;;;;4453919;32;20022;-77
2023/03/14 00:07:36;;;;;;;16.83;4.22;;;;;;;;;;4452980;32;19978;-77
2023/03/14 00:10:06;;;;;;;21.75;5.47;;;;;;;;;;4455027;32;20181;-78
2023/03/14 00:12:31;;;;;;;22.13;3.80;;;;;;;;;;4454438;32;20021;-75
2023/03/14 00:14:57;;;;;;;;;;;;;;;;;;4454179;32;20052;-77
2023/03/14 00:17:22;;;;;;;18.52;4.03;;;;;;;;;;4453406;32;19969;-77
2023/03/14 00:19:49;;;;;;;;;;;;;;;;;;4454908;32;20026;-74
2023/03/14 00:22:14;;;;;;;18.90;3.30;;;;;;;;;;4455754;32;19944;-77
2023/03/14 00:24:40;;;;;;;14.98;3.47;;;;;;;;;;4453590;32;20466;-76
2023/03/14 00:27:05;;;;;;;;;;;;;;;;;;4453772;32;20104;-78
2023/03/14 00:29:30;;;;;;;9.80;2.67;;;;;;;;;;4453715;32;19955;-78
2023/03/14 00:31:55;;;;;;;11.90;3.60;;;;;;;;;;4453187;32;20061;-77
2023/03/14 00:34:20;;;;;;;13.30;3.85;;;;;;;;;;4453381;32;20029;-78
2023/03/14 00:36:45;;;;;;;17.08;3.65;;;;;;;;;;4453509;32;20052;-78
2023/03/14 00:39:10;;;;;;;;;;;;;;;;;;4452873;32;20025;-76
2023/03/14 00:41:36;;;;;;;14.57;3.90;;;;;;;;;;4452823;32;19972;-74
2023/03/14 00:44:01;;;;;;;26.80;6.35;;;;;;;;;;4452856;32;20041;-77
2023/03/14 00:46:26;;;;;;;;;;;;;;;;;;4453228;32;20107;-77
2023/03/14 00:48:51;;;;;;;12.70;3.78;;;;;;;;;;4453093;32;19936;-77
2023/03/14 00:51:16;;;;;;;;;;;;;;;;;;4458291;32;20026;-74
2023/03/14 00:53:42;;;;;;;17.12;3.83;;;;;;;;;;4457483;32;19936;-73
2023/03/14 00:56:08;;;;;;;16.52;4.47;;;;;;;;;;4453758;32;20029;-77
2023/03/14 00:58:34;;;;;;;24.42;4.22;;;;;;;;;;4454187;32;20075;-76
2023/03/14 01:00:59;;;;;;;;;;;;;;;;;;4452119;32;20033;-75
2023/03/14 01:03:24;;;;;;;25.12;5.30;;;;;;;;;;4452621;32;19972;-77
2023/03/14 01:05:49;;;;;;;;;;;;;;;;;;4452855;32;20271;-77
2023/03/14 01:08:15;;;;;;;26.33;4.57;;;;;;;;;;4454169;32;19936;-77
2023/03/14 01:10:41;;;;;;;16.83;4.53;;;;;;;;;;4452093;32;20196;-78
2023/03/14 01:13:06;;;;;;;;;;;;;;;;;;4454555;32;20025;-78
2023/03/14 01:15:32;;;;;;;16.15;4.15;;;;;;;;;;4452381;32;19960;-77
2023/03/14 01:17:57;;;;;;;20.40;4.05;;;;;;;;;;4452786;32;20033;-78
2023/03/14 01:20:22;;;;;;;;;;;;;;;;;;4453820;32;20052;-76
2023/03/14 01:22:47;;;;;;;21.00;3.83;;;;;;;;;;4454426;32;19933;-77
2023/03/14 01:25:13;;;;;;;;;;;;;;;;;;4452443;32;20121;-77
2023/03/14 01:27:38;;;;;;;22.10;5.32;;;;;;;;;;4452880;32;19932;-77
2023/03/14 01:30:03;;;;;;;;;;;;;;;;;;4451139;32;20048;-77
2023/03/14 01:32:28;;;;;;;18.17;3.45;;;;;;;;;;4452085;32;19959;-76
2023/03/14 01:34:53;;;;;;;;;;;;;;;;;;4454509;32;20021;-77
2023/03/14 01:37:19;;;;;;;16.65;3.90;;;;;;;;;;4453600;32;19951;-77
2023/03/14 01:39:46;;;;;;;15.30;3.58;;;;;;;;;;4452441;32;20080;-77
2023/03/14 01:42:11;;;;;;;16.35;4.18;;;;;;;;;;4450502;32;20051;-77
2023/03/14 01:44:36;;;;;;;;;;;;;;;;;;4451649;32;20033;-77
2023/03/14 01:47:01;;;;;;;20.73;4.50;;;;;;;;;;4457775;32;20304;-77
2023/03/14 01:49:26;;;;;;;;;;;;;;;;;;4453306;32;20136;-77
2023/03/14 01:51:54;;;;;;;19.45;5.20;;;;;;;;;;4452832;32;19937;-76
2023/03/14 01:54:35;;;;;;;27.98;5.12;;;;;;;;;;4452250;32;20111;-76
2023/03/14 01:57:10;;;;;;;16.83;3.25;;;;;;;;;;4451593;32;20378;-77
2023/03/14 01:59:36;;;;;;;27.48;5.90;;;;;;;;;;4451130;32;20091;-76
2023/03/14 02:02:01;;;;;;;;;;;;;;;;;;4453548;32;20092;-77
2023/03/14 02:04:28;;;;;;;23.50;4.40;;;;;;;;;;4451422;32;20298;-77
2023/03/14 02:07:07;;;;;;;22.50;5.07;;;;;;;;;;4450641;32;20192;-77
2023/03/14 02:09:32;;;;;;;18.70;3.42;;;;;;;;;;4454699;32;20045;-77
2023/03/14 02:11:57;;;;;;;;;;;;;;;;;;4453809;32;20033;-76
2023/03/14 02:14:33;;;;;;;19.70;3.65;;;;;;;;;;4457751;32;19936;-77
2023/03/14 02:17:00;;;;;;;10.55;2.62;;;;;;;;;;4456406;32;20124;-77
2023/03/14 02:19:38;;;;;;;19.45;4.30;;;;;;;;;;4442633;32;20021;-77
2023/03/14 02:22:13;;;;;;;16.08;3.42;;;;;;;;;;4437749;32;20040;-78
2023/03/14 02:24:39;;;;;;;13.20;3.22;;;;;;;;;;4436198;32;20044;-77
2023/03/14 02:27:04;;;;;;;;;;;;;;;;;;4436412;32;20364;-78
2023/03/14 02:29:30;;;;;;;24.73;5.53;;;;;;;;;;4444448;32;19936;-77
2023/03/14 02:31:56;;;;;;;18.33;4.80;;;;;;;;;;4451514;32;20208;-77
2023/03/14 02:34:21;;;;;;;;;;;;;;;;;;4453413;32;20026;-78
2023/03/14 02:36:46;;;;;;;14.95;3.37;;;;;;;;;;4452335;32;20382;-76
2023/03/14 02:39:16;;;;;;;18.87;4.72;;;;;;;;;;4452440;32;20029;-77
2023/03/14 02:41:42;;;;;;;18.40;4.47;;;;;;;;;;4450162;32;20073;-77
2023/03/14 02:44:07;;;;;;;16.77;4.03;;;;;;;;;;4451326;32;20056;-77
2023/03/14 02:46:32;;;;;;;;;;;;;;;;;;4450392;32;20388;-76
2023/03/14 02:49:01;;;;;;;13.30;3.85;;;;;;;;;;4451389;32;19937;-77
2023/03/14 02:51:27;;;;;;;23.45;5.03;;;;;;;;;;4450795;32;20068;-76
2023/03/14 02:53:52;;;;;;;;;;;;;;;;;;4452804;32;20387;-77
2023/03/14 02:56:17;;;;;;;18.35;5.00;;;;;;;;;;4457506;32;19940;-76
2023/03/14 02:58:42;;;;;;;22.25;5.00;;;;;;;;;;4458508;32;20051;-77
2023/03/14 03:01:08;;;;;;;21.33;5.05;;;;;;;;;;4456208;32;20096;-77
2023/03/14 03:03:33;;;;;;;;;;;;;;;;;;4456109;32;20030;-77
2023/03/14 03:05:58;;;;;;;17.00;5.03;;;;;;;;;;4454504;32;19948;-77
2023/03/14 03:08:23;;;;;;;;;;;;;;;;;;4453520;32;20543;-77
2023/03/14 03:10:49;;;;;;;24.25;5.65;;;;;;;;;;4455208;32;19968;-77
2023/03/14 03:13:15;;;;;;;22.58;5.85;;;;;;;;;;4458089;32;20086;-77
2023/03/14 03:15:40;;;;;;;;;;;;;;;;;;4458703;32;20073;-79
2023/03/14 03:18:05;;;;;;;21.30;4.68;;;;;;;;;;4454426;32;19976;-78
2023/03/14 03:20:30;;;;;;;22.42;4.40;;;;;;;;;;4456177;32;20053;-77
2023/03/14 03:22:56;;;;;;;30.30;7.97;;;;;;;;;;4454749;32;20052;-78
2023/03/14 03:25:21;;;;;;;;;;;;;;;;;;4455133;32;20416;-78
2023/03/14 03:27:46;;;;;;;22.27;5.00;;;;;;;;;;4454702;32;19990;-78
2023/03/14 03:30:11;;;;;;;24.50;5.53;;;;;;;;;;4454274;32;20048;-77
2023/03/14 03:32:37;;;;;;;18.23;4.50;;;;;;;;;;4452570;32;20045;-75
2023/03/14 03:35:02;;;;;;;;;;;;;;;;;;4454088;32;20021;-76
2023/03/14 03:37:27;;;;;;;21.02;5.80;;;;;;;;;;4454165;32;19984;-76
2023/03/14 03:39:52;;;;;;;;;;;;;;;;;;4453748;32;20143;-77
2023/03/14 03:42:18;;;;;;;19.12;4.50;;;;;;;;;;4453727;32;19993;-76
2023/03/14 03:44:43;;;;;;;;;;;;;;;;;;4454848;32;20120;-76
2023/03/14 03:47:10;;;;;;;21.73;5.35;;;;;;;;;;4454040;32;19941;-77
2023/03/14 03:49:35;;;;;;;22.10;4.53;;;;;;;;;;4453750;32;20090;-76
2023/03/14 03:52:00;;;;;;;;;;;;;;;;;;4455433;32;20025;-75
2023/03/14 03:54:26;;;;;;;22.83;3.72;;;;;;;;;;4454901;32;20002;-75
2023/03/14 03:56:51;;;;;;;16.40;3.30;;;;;;;;;;4454072;32;20026;-76
2023/03/14 03:59:16;;;;;;;;;;;;;;;;;;4453465;32;20468;-76
2023/03/14 04:01:42;;;;;;;18.52;3.85;;;;;;;;;;4454399;32;19944;-76
2023/03/14 04:04:07;;;;;;;12.73;3.03;;;;;;;;;;4453498;32;20026;-77
2023/03/14 04:06:32;;;;;;;;;;;;;;;;;;4453680;32;20070;-77
2023/03/14 04:08:58;;;;;;;17.52;4.90;;;;;;;;;;4454110;32;19951;-76
2023/03/14 04:11:23;;;;;;;;;;;;;;;;;;4453619;32;20148;-74
2023/03/14 04:13:48;;;;;;;22.02;3.53;;;;;;;;;;4447435;32;19947;-76
2023/03/14 04:16:16;;;;;;;21.50;3.65;;;;;;;;;;4436594;32;20385;-76
2023/03/14 04:18:41;;;;;;;14.13;4.40;;;;;;;;;;4438260;32;20056;-76
2023/03/14 04:21:06;;;;;;;;;;;;;;;;;;4438426;32;20026;-76
2023/03/14 04:23:31;;;;;;;17.92;4.47;;;;;;;;;;4440411;32;19969;-76
2023/03/14 04:25:56;;;;;;;15.23;3.08;;;;;;;;;;4453402;32;20382;-75
2023/03/14 04:28:22;;;;;;;;;;;;;;;;;;4451964;32;20033;-76
2023/03/14 04:30:47;;;;;;;18.45;4.10;;;;;;;;;;4453321;32;19988;-75
2023/03/14 04:33:16;;;;;;;23.83;5.93;;;;;;;;;;4453031;32;20080;-76
2023/03/14 04:35:42;;;;;;;19.00;5.80;;;;;;;;;;4451823;32;20088;-78
2023/03/14 04:38:07;;;;;;;;;;;;;;;;;;4453670;32;20044;-76
2023/03/14 04:40:32;;;;;;;16.67;4.12;;;;;;;;;;4453713;32;19949;-77
2023/03/14 04:42:57;;;;;;;20.17;5.18;;;;;;;;;;4453742;32;20080;-76
2023/03/14 04:45:22;;;;;;;;;;;;;;;;;;4453302;32;20029;-75
2023/03/14 04:47:47;;;;;;;22.75;5.72;;;;;;;;;;4453225;32;20378;-74
2023/03/14 04:50:13;;;;;;;22.67;5.75;;;;;;;;;;4453284;32;20021;-73
2023/03/14 04:52:38;;;;;;;;;;;;;;;;;;4451640;32;20107;-74
2023/03/14 04:55:03;;;;;;;15.18;4.30;;;;;;;;;;4452405;32;19940;-73
2023/03/14 04:57:28;;;;;;;15.25;3.37;;;;;;;;;;4454528;32;20056;-73
2023/03/14 04:59:54;;;;;;;19.98;4.55;;;;;;;;;;4452798;32;20021;-73
2023/03/14 05:02:19;;;;;;;;;;;;;;;;;;4454500;32;20074;-73
2023/03/14 05:04:44;;;;;;;21.05;4.55;;;;;;;;;;4455766;32;19932;-74
2023/03/14 05:07:09;;;;;;;;;;;;;;;;;;4454712;32;20116;-73
2023/03/14 05:09:34;;;;;;;21.02;4.78;;;;;;;;;;4453043;32;19941;-73
2023/03/14 05:11:59;;;;;;;21.52;6.25;;;;;;;;;;4452542;32;20166;-73
2023/03/14 05:14:24;;;;;;;;;;;;;;;;;;4452216;32;20138;-73
2023/03/14 05:16:49;;;;;;;13.75;4.03;;;;;;;;;;4451244;32;20283;-73
2023/03/14 05:19:15;;;;;;;20.25;4.85;;;;;;;;;;4453068;32;20099;-73
2023/03/14 05:21:40;;;;;;;;;;;;;;;;;;4453753;32;20033;-71
2023/03/14 05:24:05;;;;;;;16.17;5.18;;;;;;;;;;4451981;32;19998;-73
2023/03/14 05:26:30;;;;;;;;;;;;;;;;;;4452238;32;20036;-73
2023/03/14 05:28:55;;;;;;;15.52;4.68;;;;;;;;;;4451332;32;19941;-72
2023/03/14 05:31:21;;;;;;;;;;;;;;;;;;4452611;32;20382;-74
2023/03/14 05:33:46;;;;;;;16.12;5.45;;;;;;;;;;4453784;32;19986;-73
2023/03/14 05:36:11;;;;;;;;;;;;;;;;;;4452606;32;20113;-73
2023/03/14 05:38:36;;;;;;;12.32;4.40;;;;;;;;;;4453747;32;20033;-72
2023/03/14 05:41:01;;;;;;;13.88;5.60;;;;;;;;;;4452754;32;20078;-74
2023/03/14 05:43:27;;;;;;;;;;;;;;;;;;4453167;32;20439;-71
2023/03/14 05:45:52;;;;;;;11.57;5.12;;;;;;;;;;4451336;32;19941;-71
2023/03/14 05:48:18;;;;;;;13.10;4.60;;;;;;;;;;4450055;32;20466;-73
2023/03/14 05:50:43;;;;;;;15.75;4.87;;;;;;;;;;4451903;32;20108;-74
2023/03/14 05:53:08;;;;;;;;;;;;;;;;;;4451902;32;20047;-74
2023/03/14 05:55:33;;;;;;;8.70;2.90;;;;;;;;;;4451224;32;19967;-73
2023/03/14 05:57:58;;;;;;;;;;;;;;;;;;4452812;32;20166;-74
2023/03/14 06:00:23;;;;;;;10.65;2.40;;;;;;;;;;4450557;32;19959;-73
2023/03/14 06:02:49;;;;;;;;;;;;;;;;;;4452223;32;20112;-73
2023/03/14 06:05:14;;;;;;;8.15;1.73;;;;;;;;;;4452459;32;20286;-74
2023/03/14 06:07:39;;;;;;;;;;;;;;;;;;4452583;32;20476;-74
2023/03/14 06:10:04;;;;;;;8.10;1.87;;;;;;;;;;4453083;32;19945;-74
2023/03/14 06:12:29;;;;;;;;;;;;;;;;;;4453274;32;20466;-73
2023/03/14 06:14:55;;;;;;;11.02;3.28;;;;;;;;;;4451677;32;20410;-74
2023/03/14 06:17:20;;;;;;;;;;;;;;;;;;4456025;32;20117;-73
2023/03/14 06:19:45;;;;;;;12.07;2.50;;;;;;;;;;4452570;32;20354;-76
2023/03/14 06:22:10;;;;;;;;;;;;;;;;;;4452029;32;20030;-74
2023/03/14 06:24:35;;;;;;;14.87;2.58;;;;;;;;;;4452588;32;19992;-74
2023/03/14 06:27:02;;;;;;;;;;;;;;;;;;4452372;32;20401;-74
2023/03/14 06:29:27;;;;;;;6.45;2.42;;;;;;;;;;4450874;32;20309;-74
2023/03/14 06:31:53;;;;;;;;;;;;;;;;;;4452560;32;20111;-75
2023/03/14 06:34:18;;;;;;;9.10;1.98;;;;;;;;;;4451535;32;19932;-75
2023/03/14 06:36:43;;;;;;;10.52;2.10;;;;;;;;;;4451286;32;20413;-75
2023/03/14 06:39:08;;;;;;;;;;;;;;;;;;4452574;32;20036;-75
2023/03/14 06:41:33;;;;;;;6.87;1.90;;;;;;;;;;4453943;32;19937;-76
2023/03/14 06:43:58;;;;;;;;;;;;;;;;;;4452404;32;20051;-77
2023/03/14 06:46:24;;;;;;;6.43;1.77;;;;;;;;;;4451649;32;20052;-78
2023/03/14 06:48:49;;;;;;;;;;;;;;;;;;4450826;32;20128;-78
2023/03/14 06:51:14;;;;;;;6.37;1.60;;;;;;;;;;4451958;32;19991;-79
2023/03/14 06:53:39;;;;;;;;;;;;;;;;;;4452957;32;20408;-78
2023/03/14 06:56:04;;;;;;;10.27;1.73;;;;;;;;;;4450706;32;20329;-79
2023/03/14 06:58:30;;;;;;;;;;;;;;;;;;4451950;32;20154;-79
2023/03/14 07:00:56;;;;;;;5.87;1.70;;;;;;;;;;4450579;32;20020;-79
2023/03/14 07:03:24;;;;;;;9.18;2.40;;;;;;;;;;4452210;32;20049;-80
2023/03/14 07:05:50;;;;;;;7.62;1.67;;;;;;;;;;4451664;32;20048;-80
2023/03/14 07:08:15;;;;;;;;;;;;;;;;;;4457878;32;20080;-80
2023/03/14 07:10:40;;;;;;;13.70;2.20;;;;;;;;;;4456477;32;19947;-79
2023/03/14 07:13:05;;;;;;;;;;;;;;;;;;4451333;32;20098;-79
2023/03/14 07:15:30;;;;;;;6.50;2.33;;;;;;;;;;4450521;32;19947;-79
2023/03/14 07:17:56;;;;;;;16.40;3.30;;;;;;;;;;4451507;32;20057;-78
2023/03/14 07:20:21;;;;;;;;;;;;;;;;;;4456277;32;20017;-79
2023/03/14 07:22:49;;;;;;;11.32;2.35;;;;;;;;;;4460873;32;19947;-78
2023/03/14 07:25:15;;;;;;;14.68;2.12;;;;;;;;;;4455031;32;20084;-77
2023/03/14 07:27:40;;;;;;;;;;;;;;;;;;4451570;32;20041;-77
2023/03/14 07:30:05;;;;;;;7.97;1.73;;;;;;;;;;4451066;32;19969;-78
2023/03/14 07:32:30;;;;;;;;;;;;;;;;;;4451791;32;20022;-78
2023/03/14 07:34:56;;;;;;;16.95;2.60;;;;;;;;;;4451976;32;19976;-78
2023/03/14 07:37:21;;;;;;;;;;;;;;;;;;4453197;32;20022;-78
2023/03/14 07:39:46;;;;;;;8.55;2.25;;;;;;;;;;4453912;32;20002;-78
2023/03/14 07:42:11;;;;;;;;;;;;;;;;;;4457124;32;20117;-78
2023/03/14 07:44:36;;;;;;;12.35;2.60;;;;;;;;;;4454701;32;19966;-78
2023/03/14 07:47:01;;;;;;;;;;;;;;;;;;4455186;32;20029;-79
2023/03/14 07:49:27;;;;;;;7.22;1.77;;;;;;;;;;4456362;32;20001;-77
2023/03/14 07:51:52;;;;;;;;;;;;;;;;;;4455411;32;20133;-75
2023/03/14 07:54:17;;;;;;;8.38;2.00;;;;;;;;;;4454501;32;19933;-74
2023/03/14 07:56:42;;;;;;;;;;;;;;;;;;4454193;32;20154;-75
2023/03/14 07:59:07;;;;;;;7.95;1.60;;;;;;;;;;4454429;32;20000;-75
2023/03/14 08:01:32;;;;;;;;;;;;;;;;;;4453986;32;20143;-76
2023/03/14 08:03:58;;;;;;;13.18;2.35;;;;;;;;;;4452493;32;20275;-76
2023/03/14 08:06:23;;;;;;;;;;;;;;;;;;4452457;32;20113;-78
2023/03/14 08:08:48;;;;;;;13.80;3.90;;;;;;;;;;4452555;32;19932;-79
2023/03/14 08:11:13;;;;;;;;;;;;;;;;;;4452433;32;20021;-79
2023/03/14 08:13:39;;;;;;;16.00;3.58;;;;;;;;;;4454127;32;19936;-79
2023/03/14 08:16:04;;;;;;;;;;;;;;;;;;4453933;32;20059;-78
2023/03/14 08:18:29;;;;;;;18.70;3.95;;;;;;;;;;4454226;32;19947;-79
2023/03/14 08:20:55;;;;;;;13.15;2.70;;;;;;;;;;4453226;32;20418;-79
2023/03/14 08:23:20;;;;;;;;;;;;;;;;;;4453974;32;20053;-80
2023/03/14 08:25:47;;;;;;;12.63;2.40;;;;;;;;;;4454151;32;19951;-81
2023/03/14 08:28:13;;;;;;;10.13;2.08;;;;;;;;;;4453619;32;20124;-80
2023/03/14 08:30:38;;;;;;;;;;;;;;;;;;4458937;32;20009;-79
2023/03/14 08:33:03;;;;;;;5.85;1.75;;;;;;;;;;4458225;32;19941;-80
2023/03/14 08:35:28;;;;;;;10.07;2.35;;;;;;;;;;4456151;32;20021;-79
2023/03/14 08:37:53;;;;;;;;;;;;;;;;;;4455662;32;20052;-81
2023/03/14 08:40:19;;;;;;;8.32;3.20;;;;;;;;;;4455262;32;20282;-81
2023/03/14 08:42:44;;;;;;;;;;;;;;;;;;4455369;32;20112;-82
2023/03/14 08:45:10;;;;;;;7.85;1.73;;;;;;;;;;4456375;32;19937;-81
2023/03/14 08:47:36;;;;;;;10.05;1.35;;;;;;;;;;4453546;32;20057;-80
2023/03/14 08:50:01;;;;;;;;;;;;;;;;;;4455306;32;20073;-82
2023/03/14 08:52:26;;;;;;;4.07;1.25;;;;;;;;;;4454685;32;19975;-80
2023/03/14 08:54:51;;;;;;;;;;;;;;;;;;4454037;32;20120;-81
2023/03/14 08:57:16;;;;;;;10.20;2.00;;;;;;;;;;4452994;32;19977;-80
2023/03/14 08:59:41;;;;;;;;;;;;;;;;;;4454124;32;20436;-79
2023/03/14 09:02:08;;;;;;;8.63;2.05;;;;;;;;;;4452879;32;19991;-79
2023/03/14 09:04:33;;;;;;;4.12;1.65;;;;;;;;;;4454405;32;20177;-79
2023/03/14 09:06:58;;;;;;;;;;;;;;;;;;4454129;32;20446;-79
2023/03/14 09:09:24;;;;;;;19.90;2.08;;;;;;;;;;4454375;32;19984;-79
2023/03/14 09:11:49;;;;;;;;;;;;;;;;;;4456821;32;20356;-79
2023/03/14 09:14:14;;;;;;;18.05;3.25;;;;;;;;;;4458324;32;19933;-79
2023/03/14 09:16:40;;;;;;;;;;;;;;;;;;4453577;32;20071;-80
2023/03/14 09:19:05;;;;;;;14.13;2.67;;;;;;;;;;4451037;32;19933;-80
2023/03/14 09:21:30;;;;;;;;;;;;;;;;;;4451689;32;20043;-78
2023/03/14 09:23:55;;;;;;;12.85;2.95;;;;;;;;;;4450967;32;19937;-79
2023/03/14 09:26:20;;;;;;;;;;;;;;;;;;4452450;32;20067;-80
2023/03/14 09:28:46;;;;;;;15.90;2.90;;;;;;;;;;4449878;32;19936;-79
2023/03/14 09:31:11;;;;;;;;;;;;;;;;;;4452989;32;20124;-80
2023/03/14 09:33:36;;;;;;;24.30;3.78;;;;;;;;;;4453457;32;20370;-78
2023/03/14 09:36:01;;;;;;;;;;;;;;;;;;4451331;32;20203;-78
2023/03/14 09:38:27;;;;;;;20.60;3.70;;;;;;;;;;4451960;32;19991;-77
2023/03/14 09:40:52;;;;;;;15.23;2.97;;;;;;;;;;4452566;32;20026;-78
2023/03/14 09:43:18;;;;;;;;;;;;;;;;;;4452559;32;20021;-78
2023/03/14 09:45:45;;;;;;;26.00;3.95;;;;;;;;;;4451672;32;19971;-78
2023/03/14 09:48:20;;;;;;;22.75;4.43;;;;;;;;;;4451885;32;20053;-77
2023/03/14 09:50:47;;;;;;;18.10;3.28;;;;;;;;;;4454099;32;20033;-77
2023/03/14 09:53:16;;;;;;;19.73;3.15;;;;;;;;;;4454634;32;20450;-77
2023/03/14 09:55:42;;;;;;;14.15;3.47;;;;;;;;;;4453112;32;20098;-76
2023/03/14 09:58:07;;;;;;;;;;;;;;;;;;4452896;32;20097;-77
2023/03/14 10:00:32;;;;;;;19.08;3.20;;;;;;;;;;4452237;32;19951;-76
2023/03/14 10:02:58;;;;;;;;;;;;;;;;;;4450696;32;20081;-77
2023/03/14 10:05:26;;;;;;;20.25;3.78;;;;;;;;;;4451797;32;19932;-79
2023/03/14 10:07:51;;;;;;;20.30;3.58;;;;;;;;;;4450423;32;20139;-79
2023/03/14 10:10:16;;;;;;;;;;;;;;;;;;4453422;32;20080;-79
2023/03/14 10:12:44;;;;;;;20.25;4.22;;;;;;;;;;4452180;32;19940;-79
2023/03/14 10:15:11;;;;;;;21.37;4.72;;;;;;;;;;4450572;32;20051;-79
2023/03/14 10:17:40;;;;;;;19.48;4.72;;;;;;;;;;4454024;32;20465;-80
2023/03/14 10:20:06;;;;;;;28.87;4.93;;;;;;;;;;4451934;32;20052;-79
2023/03/14 10:22:31;;;;;;;;;;;;;;;;;;4451612;32;20037;-77
2023/03/14 10:24:59;;;;;;;23.98;3.78;;;;;;;;;;4457763;32;20420;-77
2023/03/14 10:27:29;;;;;;;27.77;5.68;;;;;;;;;;4457708;32;20479;-77
2023/03/14 10:29:56;;;;;;;28.40;5.00;;;;;;;;;;4456204;32;20477;-79
2023/03/14 10:32:22;;;;;;;37.88;5.57;;;;;;;;;;4457052;32;20033;-80
2023/03/14 10:34:47;;;;;;;;;;;;;;;;;;4454744;32;20034;-76
2023/03/14 10:37:28;;;;;;;33.95;5.70;;;;;;;;;;4459803;32;19924;-76
2023/03/14 10:39:55;;;;;;;29.10;4.85;;;;;;;;;;4465034;32;20120;-77
2023/03/14 10:42:20;;;;;;;29.35;4.97;;;;;;;;;;4465325;32;20047;-78
2023/03/14 10:44:45;;;;;;;;;;;;;;;;;;4465632;32;20053;-77
2023/03/14 10:47:16;;;;;;;36.42;6.25;;;;;;;;;;4464574;32;19928;-80
2023/03/14 10:49:41;;;;;;;34.85;5.07;;;;;;;;;;4464718;32;20029;-78
2023/03/14 10:52:06;;;;;;;;;;;;;;;;;;4465591;32;20021;-79
2023/03/14 10:54:32;;;;;;;32.66;4.98;;;;;;;;;;4461470;32;19947;-78
2023/03/14 10:56:57;;;;;;;;;;;;;;;;;;4457915;32;20055;-77
2023/03/14 10:59:22;;;;;;;33.25;5.18;;;;;;;;;;4449970;32;19950;-78
2023/03/14 11:01:47;;;;;;;;;;;;;;;;;;4449697;32;20066;-76
2023/03/14 11:04:31;;;;;;;22.48;5.40;;;;;;;;;;4462257;32;19913;-80
2023/03/14 11:07:02;;;;;;;24.75;4.30;;;;;;;;;;4464172;32;20187;-77
2023/03/14 11:09:33;;;;;;;23.20;4.00;;;;;;;;;;4463857;32;20063;-76
2023/03/14 11:12:03;;;;;;;26.27;4.57;;;;;;;;;;4454965;32;20022;-79
2023/03/14 11:14:40;;;;;;;27.23;5.22;;;;;;;;;;4455954;32;20082;-79
2023/03/14 11:17:14;;;;;;;21.40;4.22;;;;;;;;;;4462306;32;20049;-80
2023/03/14 11:19:58;;;;;;;28.30;4.43;;;;;;;;;;4460470;32;20029;-78
2023/03/14 11:22:28;;;;;;;22.85;4.35;;;;;;;;;;4458729;32;20079;-78
2023/03/14 11:25:13;;;;;;;23.48;3.97;;;;;;;;;;4457597;32;20092;-79
2023/03/14 11:27:51;;;;;;;22.20;3.92;;;;;;;;;;4424556;32;20056;-79
2023/03/14 11:30:19;;;;;;;14.50;3.95;;;;;;;;;;4457582;32;20064;-79
2023/03/14 11:32:49;;;;;;;16.92;3.83;;;;;;;;;;4452903;32;20417;-80
2023/03/14 11:35:38;;;;;;;11.25;3.20;;;;;;;;;;4453974;32;20029;-79
2023/03/14 11:38:22;;;;;;;13.93;2.87;;;;;;;;;;4446721;32;20033;-80
2023/03/14 11:43:55;;;;;;;15.93;3.65;;;;;;;;;;4454306;32;20037;-79
2023/03/14 11:46:25;;;;;;;18.75;2.95;;;;;;;;;;4454915;32;20029;-79
2023/03/14 11:48:53;;;;;;;14.52;2.60;;;;;;;;;;4453539;32;20463;-79
2023/03/14 11:51:23;;;;;;;14.07;3.47;;;;;;;;;;4453907;32;20022;-79
2023/03/14 11:53:57;;;;;;;13.68;2.60;;;;;;;;;;4454607;32;20045;-81
2023/03/14 11:56:27;;;;;;;15.32;2.72;;;;;;;;;;4455260;32;20417;-80
2023/03/14 11:58:56;;;;;;;12.45;3.65;;;;;;;;;;4453150;32;20029;-80
2023/03/14 12:01:23;;;;;;;15.35;3.65;;;;;;;;;;4454389;32;20075;-80
2023/03/14 12:04:00;;;;;;;21.02;3.05;;;;;;;;;;4453878;32;20444;-80
2023/03/14 12:06:31;;;;;;;15.57;3.65;;;;;;;;;;4454098;32;20028;-81
2023/03/14 12:09:01;;;;;;;23.45;3.62;;;;;;;;;;4452746;32;20503;-80
2023/03/14 12:11:26;;;;;;;15.18;3.30;;;;;;;;;;4454300;32;20486;-81
2023/03/14 12:13:51;;;;;;;;;;;;;;;;;;4454694;32;20055;-79
2023/03/14 12:16:22;;;;;;;16.67;3.37;;;;;;;;;;4454431;32;19993;-79
2023/03/14 12:18:48;;;;;;;20.30;4.43;;;;;;;;;;4456532;32;20390;-78
2023/03/14 12:21:13;;;;;;;;;;;;;;;;;;4457050;32;20044;-78
2023/03/14 12:23:44;;;;;;;12.37;2.47;;;;;;;;;;4454332;32;19940;-79
2023/03/14 12:26:12;;;;;;;12.30;2.55;;;;;;;;;;4453412;32;20128;-81
2023/03/14 12:28:38;;;;;;;13.50;2.83;;;;;;;;;;4452090;32;20041;-80
2023/03/14 12:31:26;;;;;;;11.80;3.20;;;;;;;;;;4452095;32;20033;-80
2023/03/14 12:34:01;;;;;;;12.93;3.12;;;;;;;;;;4445250;32;20052;-81
2023/03/14 12:36:51;;;;;;;14.65;3.20;;;;;;;;;;4437358;32;20053;-79
2023/03/14 12:39:23;;;;;;;11.45;2.62;;;;;;;;;;4437054;32;20065;-81
2023/03/14 12:41:52;;;;;;;19.37;3.10;;;;;;;;;;4436794;32;20349;-80
2023/03/14 12:44:29;;;;;;;10.07;3.17;;;;;;;;;;4438212;32;20018;-81
2023/03/14 12:46:57;;;;;;;10.88;2.28;;;;;;;;;;4436916;32;20334;-80
2023/03/14 12:49:29;;;;;;;16.02;2.90;;;;;;;;;;4438443;32;20474;-80
2023/03/14 12:51:58;;;;;;;13.75;2.83;;;;;;;;;;4438837;32;20071;-81
2023/03/14 12:54:30;;;;;;;12.43;2.83;;;;;;;;;;4439611;32;20048;-78
2023/03/14 12:57:07;;;;;;;6.35;1.85;;;;;;;;;;4439336;32;20026;-82
2023/03/14 12:59:32;;;;;;;9.02;2.37;;;;;;;;;;4444099;32;20075;-82
2023/03/14 13:01:57;;;;;;;;;;;;;;;;;;4448063;32;20026;-81
2023/03/14 13:04:27;;;;;;;16.48;2.70;;;;;;;;;;4457084;32;19944;-81
2023/03/14 13:06:59;;;;;;;15.45;2.40;;;;;;;;;;4444842;32;20073;-80
2023/03/14 13:09:25;;;;;;;8.15;1.98;;;;;;;;;;4443957;32;20097;-81
2023/03/14 13:11:50;;;;;;;6.95;2.33;;;;;;;;;;4450884;32;20056;-83
2023/03/14 13:14:15;;;;;;;11.38;2.20;;;;;;;;;;4458216;32;20146;-81
2023/03/14 13:16:42;;;;;;;11.50;2.15;;;;;;;;;;4449553;32;20033;-82
2023/03/14 13:19:17;;;;;;;5.10;2.22;;;;;;;;;;4467885;32;20037;-82
2023/03/14 13:21:42;;;;;;;10.52;2.83;;;;;;;;;;4458759;32;20100;-82
2023/03/14 13:24:20;;;;;;;8.18;1.92;;;;;;;;;;4442321;32;20033;-83
2023/03/14 13:26:48;;;;;;;7.55;2.20;;;;;;;;;;4451409;32;20029;-83
2023/03/14 13:29:18;;;;;;;10.00;2.45;;;;;;;;;;4436391;32;20091;-82
2023/03/14 13:31:48;;;;;;;6.50;2.40;;;;;;;;;;4444775;32;20025;-83
2023/03/14 13:34:13;;;;;;;10.82;2.55;;;;;;;;;;4451420;32;20357;-81
2023/03/14 13:36:38;;;;;;;13.75;2.50;;;;;;;;;;4440379;32;20043;-82
2023/03/14 13:39:04;;;;;;;;;;;;;;;;;;4452550;32;20033;-82
2023/03/14 13:41:30;;;;;;;13.30;2.22;;;;;;;;;;4451516;32;19929;-83
2023/03/14 13:43:55;;;;;;;;;;;;;;;;;;4451470;32;20088;-83
2023/03/14 13:46:21;;;;;;;5.07;1.70;;;;;;;;;;4452835;32;19933;-82
2023/03/14 13:48:48;;;;;;;9.52;2.20;;;;;;;;;;4452058;32;20091;-83
2023/03/14 13:51:15;;;;;;;8.82;1.77;;;;;;;;;;4451991;32;20073;-83
2023/03/14 13:53:45;;;;;;;9.98;2.17;;;;;;;;;;4452928;32;20060;-84
2023/03/14 13:56:10;;;;;;;11.40;2.50;;;;;;;;;;4453422;32;20018;-83
2023/03/14 13:58:35;;;;;;;;;;;;;;;;;;4453689;32;20105;-84
2023/03/14 14:01:06;;;;;;;10.85;2.25;;;;;;;;;;4453926;32;19984;-82
2023/03/14 14:03:32;;;;;;;10.90;2.15;;;;;;;;;;4456681;32;20029;-84
2023/03/14 14:05:58;;;;;;;12.93;2.28;;;;;;;;;;4456290;32;20045;-83
2023/03/14 14:08:24;;;;;;;;;;;;;;;;;;4453922;32;20057;-82
2023/03/14 14:10:49;;;;;;;11.93;2.40;;;;;;;;;;4449755;32;19932;-84
2023/03/14 14:13:15;;;;;;;;;;;;;;;;;;4443272;32;20401;-84
2023/03/14 14:15:42;;;;;;;11.70;2.50;;;;;;;;;;4452994;32;19941;-82
2023/03/14 14:18:09;;;;;;;8.93;2.25;;;;;;;;;;4451897;32;20042;-82
2023/03/14 14:20:37;;;;;;;9.93;2.65;;;;;;;;;;4438752;32;20331;-83
2023/03/14 14:23:09;;;;;;;11.12;2.25;;;;;;;;;;4450064;32;20057;-83
2023/03/14 14:25:34;;;;;;;10.50;2.37;;;;;;;;;;4442262;32;20100;-83
2023/03/14 14:27:59;;;;;;;;;;;;;;;;;;4454034;32;20044;-83
2023/03/14 14:30:28;;;;;;;11.38;2.87;;;;;;;;;;4444197;32;19953;-82
2023/03/14 14:33:06;;;;;;;8.98;1.98;;;;;;;;;;4453232;32;20048;-83
2023/03/14 14:35:33;;;;;;;12.20;2.83;;;;;;;;;;4457859;32;20017;-83
2023/03/14 14:37:58;;;;;;;9.82;2.50;;;;;;;;;;4447293;32;20025;-83
2023/03/14 14:40:23;;;;;;;;;;;;;;;;;;4442571;32;20094;-82
2023/03/14 14:42:49;;;;;;;10.23;2.85;;;;;;;;;;4436364;32;20394;-83
2023/03/14 14:45:14;;;;;;;;;;;;;;;;;;4437654;32;20139;-83
2023/03/14 14:47:50;;;;;;;11.48;2.33;;;;;;;;;;4451680;32;19944;-82
2023/03/14 14:50:28;;;;;;;16.47;2.27;;;;;;;;;;4452996;32;20051;-84
2023/03/14 14:52:56;;;;;;;11.38;2.12;;;;;;;;;;4452452;32;20205;-84
2023/03/14 14:55:21;;;;;;;11.55;2.20;;;;;;;;;;4450610;32;20025;-83
2023/03/14 14:57:46;;;;;;;;;;;;;;;;;;4442923;32;20471;-83
2023/03/14 15:00:18;;;;;;;15.10;1.90;;;;;;;;;;4443008;32;19933;-83
2023/03/14 15:02:47;;;;;;;12.23;2.80;;;;;;;;;;4451183;32;20017;-82
2023/03/14 15:05:14;;;;;;;10.82;2.37;;;;;;;;;;4437781;32;20094;-83
2023/03/14 15:07:39;;;;;;;9.85;2.10;;;;;;;;;;4437348;32;20025;-84